createdAt,value
2023-08-11T00:01:07.214Z,2.30
2023-08-11T00:03:35.410Z,2.10
2023-08-11T00:06:03.147Z,1.80
2023-08-11T00:08:30.814Z,2.23
2023-08-11T00:10:59.829Z,2.33
2023-08-11T00:13:27.460Z,1.93
2023-08-11T00:15:56.702Z,2.20
2023-08-11T00:18:24.410Z,2.20
2023-08-11T00:20:52.297Z,1.73
2023-08-11T00:23:20.022Z,2.33
2023-08-11T00:25:47.672Z,2.10
2023-08-11T00:28:16.719Z,2.10
2023-08-11T00:30:44.432Z,2.20
2023-08-11T00:33:12.321Z,2.33
2023-08-11T00:35:40.005Z,2.10
2023-08-11T00:38:07.620Z,2.33
2023-08-11T00:40:35.367Z,2.30
2023-08-11T00:43:03.032Z,2.20
2023-08-11T00:45:32.249Z,2.10
2023-08-11T00:48:00.139Z,2.37
2023-08-11T00:50:28.174Z,2.40
2023-08-11T00:52:56.337Z,2.20
2023-08-11T00:55:24.096Z,2.20
2023-08-11T00:57:51.803Z,2.37
2023-08-11T01:00:20.085Z,2.17
2023-08-11T01:02:49.390Z,2.20
2023-08-11T01:05:18.911Z,2.40
2023-08-11T01:07:56.032Z,2.43
2023-08-11T01:10:29.813Z,2.20
2023-08-11T01:13:02.596Z,2.20
2023-08-11T01:15:33.984Z,2.07
2023-08-11T01:18:04.254Z,2.20
2023-08-11T01:20:32.459Z,2.10
2023-08-11T01:23:02.264Z,2.30
2023-08-11T01:25:31.386Z,2.30
2023-08-11T01:28:01.311Z,2.27
2023-08-11T01:30:31.297Z,2.30
2023-08-11T01:32:59.097Z,2.20
2023-08-11T01:35:39.120Z,1.93
2023-08-11T01:38:09.728Z,2.50
2023-08-11T01:40:39.490Z,2.13
2023-08-11T01:43:08.293Z,2.30
2023-08-11T01:45:36.408Z,2.90
2023-08-11T01:48:04.674Z,2.53
2023-08-11T01:50:33.985Z,2.20
2023-08-11T01:53:01.693Z,2.23
2023-08-11T01:55:30.134Z,2.23
2023-08-11T01:58:00.362Z,2.50
2023-08-11T02:00:29.306Z,2.43
2023-08-11T02:02:58.531Z,2.33
2023-08-11T02:05:26.858Z,2.43
2023-08-11T02:07:56.677Z,2.20
2023-08-11T02:10:24.838Z,2.30
2023-08-11T02:12:52.597Z,2.40
2023-08-11T02:15:21.677Z,2.60
2023-08-11T02:17:49.927Z,2.27
2023-08-11T02:20:22.896Z,2.23
2023-08-11T02:22:51.804Z,2.63
2023-08-11T02:25:19.521Z,2.60
2023-08-11T02:27:47.188Z,2.83
2023-08-11T02:30:15.462Z,2.67
2023-08-11T02:32:46.825Z,2.43
2023-08-11T02:35:15.375Z,2.60
2023-08-11T02:37:43.319Z,2.73
2023-08-11T02:40:11.955Z,2.50
2023-08-11T02:42:40.591Z,2.90
2023-08-11T02:45:11.514Z,2.70
2023-08-11T02:47:41.441Z,2.97
2023-08-11T02:50:11.624Z,2.27
2023-08-11T02:52:39.665Z,2.70
2023-08-11T02:55:09.633Z,2.40
2023-08-11T02:57:37.968Z,2.33
2023-08-11T03:00:09.479Z,2.50
2023-08-11T03:02:37.658Z,2.93
2023-08-11T03:05:08.301Z,2.63
2023-08-11T03:07:37.714Z,2.40
2023-08-11T03:10:06.183Z,2.47
2023-08-11T03:12:34.017Z,2.50
2023-08-11T03:15:01.673Z,2.23
2023-08-11T03:17:29.434Z,2.40
2023-08-11T03:19:57.105Z,2.97
2023-08-11T03:22:24.890Z,2.70
2023-08-11T03:24:54.275Z,2.70
2023-08-11T03:27:22.009Z,2.50
2023-08-11T03:29:49.678Z,2.60
2023-08-11T03:32:17.416Z,2.30
2023-08-11T03:34:45.197Z,2.30
2023-08-11T03:37:12.905Z,2.40
2023-08-11T03:39:40.608Z,2.43
2023-08-11T03:42:11.446Z,2.97
2023-08-11T03:44:41.533Z,2.77
2023-08-11T03:47:09.175Z,2.60
2023-08-11T03:49:37.001Z,2.40
2023-08-11T03:52:04.936Z,2.83
2023-08-11T03:54:44.471Z,2.37
2023-08-11T03:57:14.912Z,2.80
2023-08-11T03:59:42.662Z,2.20
2023-08-11T04:02:10.656Z,2.57
2023-08-11T04:04:38.704Z,2.43
2023-08-11T04:07:06.683Z,2.40
2023-08-11T04:09:35.294Z,2.40
2023-08-11T04:12:03.761Z,2.67
2023-08-11T04:14:33.051Z,2.13
2023-08-11T04:17:00.877Z,2.70
2023-08-11T04:19:28.552Z,2.67
2023-08-11T04:21:56.251Z,2.53
2023-08-11T04:24:23.888Z,2.70
2023-08-11T04:26:52.223Z,2.67
2023-08-11T04:29:19.894Z,2.67
2023-08-11T04:31:49.147Z,2.40
2023-08-11T04:34:17.550Z,2.40
2023-08-11T04:36:45.971Z,2.50
2023-08-11T04:39:13.691Z,2.87
2023-08-11T04:41:41.494Z,2.77
2023-08-11T04:44:10.024Z,3.00
2023-08-11T04:46:37.760Z,2.80
2023-08-11T04:49:06.913Z,2.80
2023-08-11T04:51:34.751Z,2.33
2023-08-11T04:54:04.104Z,2.57
2023-08-11T04:56:31.903Z,2.60
2023-08-11T04:58:59.558Z,2.93
2023-08-11T05:01:27.278Z,2.67
2023-08-11T05:03:55.127Z,2.43
2023-08-11T05:06:24.175Z,2.67
2023-08-11T05:08:51.868Z,3.07
2023-08-11T05:11:19.521Z,2.87
2023-08-11T05:13:47.170Z,2.70
2023-08-11T05:16:15.009Z,2.60
2023-08-11T05:18:44.287Z,2.97
2023-08-11T05:21:12.843Z,2.57
2023-08-11T05:23:41.904Z,2.60
2023-08-11T05:26:09.728Z,2.70
2023-08-11T05:28:37.482Z,3.10
2023-08-11T05:31:05.807Z,2.80
2023-08-11T05:33:34.555Z,3.30
2023-08-11T05:36:02.718Z,3.00
2023-08-11T05:38:30.603Z,3.23
2023-08-11T05:40:59.647Z,2.73
2023-08-11T05:43:27.385Z,2.87
2023-08-11T05:45:55.104Z,3.10
2023-08-11T05:48:22.924Z,3.60
2023-08-11T05:50:51.363Z,3.37
2023-08-11T05:53:19.134Z,3.10
2023-08-11T05:55:46.805Z,3.27
2023-08-11T05:58:15.797Z,3.73
2023-08-11T06:00:43.457Z,3.07
2023-08-11T06:03:11.142Z,3.93
2023-08-11T06:05:39.488Z,3.93
2023-08-11T06:08:07.388Z,3.60
2023-08-11T06:10:35.357Z,3.80
2023-08-11T06:13:03.188Z,3.83
2023-08-11T06:15:32.273Z,4.03
2023-08-11T06:18:00.175Z,4.10
2023-08-11T06:20:40.237Z,4.20
2023-08-11T06:23:09.117Z,3.73
2023-08-11T06:25:37.038Z,4.03
2023-08-11T06:28:05.182Z,4.10
2023-08-11T06:30:34.503Z,3.67
2023-08-11T06:33:02.573Z,3.63
2023-08-11T06:35:30.789Z,3.50
2023-08-11T06:37:58.488Z,3.20
2023-08-11T06:40:26.363Z,4.40
2023-08-11T06:42:54.048Z,4.07
2023-08-11T06:45:21.769Z,3.80
2023-08-11T06:47:50.928Z,4.03
2023-08-11T06:50:18.725Z,4.47
2023-08-11T06:52:46.415Z,3.77
2023-08-11T06:55:14.132Z,4.40
2023-08-11T06:57:41.892Z,3.60
2023-08-11T07:00:10.711Z,3.50
2023-08-11T07:02:38.466Z,4.20
2023-08-11T07:05:07.939Z,3.50
2023-08-11T07:07:35.608Z,3.50
2023-08-11T07:10:04.675Z,3.67
2023-08-11T07:12:32.511Z,3.67
2023-08-11T07:15:00.280Z,3.53
2023-08-11T07:17:27.965Z,3.40
2023-08-11T07:19:55.610Z,3.33
2023-08-11T07:22:24.608Z,3.30
2023-08-11T07:24:52.315Z,4.00
2023-08-11T07:27:20.020Z,3.70
2023-08-11T07:29:47.707Z,3.30
2023-08-11T07:32:15.399Z,3.50
2023-08-11T07:34:43.117Z,3.30
2023-08-11T07:37:11.175Z,3.17
2023-08-11T07:39:40.417Z,3.87
2023-08-11T07:42:08.097Z,3.27
2023-08-11T07:44:36.050Z,3.20
2023-08-11T07:47:04.147Z,3.10
2023-08-11T07:49:32.523Z,3.30
2023-08-11T07:52:00.279Z,3.17
2023-08-11T07:54:28.081Z,2.93
2023-08-11T07:56:57.195Z,3.40
2023-08-11T07:59:24.947Z,3.67
2023-08-11T08:01:53.362Z,3.30
2023-08-11T08:04:21.289Z,3.40
2023-08-11T08:06:48.987Z,3.47
2023-08-11T08:09:16.993Z,3.57
2023-08-11T08:11:46.512Z,3.33
2023-08-11T08:14:15.773Z,2.90
2023-08-11T08:16:45.626Z,3.40
2023-08-11T08:19:15.211Z,3.33
2023-08-11T08:21:43.583Z,3.00
2023-08-11T08:24:11.511Z,2.90
2023-08-11T08:26:39.342Z,3.03
2023-08-11T08:29:07.103Z,3.40
2023-08-11T08:31:36.141Z,2.97
2023-08-11T08:34:04.117Z,3.10
2023-08-11T08:36:31.806Z,2.93
2023-08-11T08:38:59.455Z,2.90
2023-08-11T08:41:29.430Z,3.27
2023-08-11T08:43:57.502Z,3.23
2023-08-11T08:46:29.493Z,2.90
2023-08-11T08:49:06.533Z,3.27
2023-08-11T08:51:34.598Z,3.37
2023-08-11T08:54:02.565Z,2.80
2023-08-11T08:56:30.683Z,3.00
2023-08-11T08:58:58.560Z,2.80
2023-08-11T09:01:26.572Z,3.07
2023-08-11T09:03:54.795Z,3.30
2023-08-11T09:06:24.025Z,2.60
2023-08-11T09:08:51.693Z,2.90
2023-08-11T09:11:20.057Z,3.10
2023-08-11T09:13:48.008Z,2.53
2023-08-11T09:16:16.217Z,2.70
2023-08-11T09:18:45.180Z,2.70
2023-08-11T09:21:13.997Z,2.53
2023-08-11T09:23:44.782Z,2.17
2023-08-11T09:26:12.397Z,2.60
2023-08-11T09:28:41.538Z,2.67
2023-08-11T09:31:09.249Z,2.30
2023-08-11T09:33:37.158Z,1.93
2023-08-11T09:36:04.973Z,2.00
2023-08-11T09:38:32.724Z,1.80
2023-08-11T09:41:04.179Z,2.22
2023-08-11T09:43:32.750Z,2.30
2023-08-11T09:46:01.695Z,2.67
2023-08-11T09:48:30.730Z,2.40
2023-08-11T09:50:59.252Z,2.90
2023-08-11T09:53:28.141Z,2.38
2023-08-11T09:55:57.398Z,2.70
2023-08-11T09:58:28.470Z,2.25
2023-08-11T10:01:04.128Z,2.17
2023-08-11T10:03:45.236Z,2.40
2023-08-11T10:06:17.643Z,2.20
2023-08-11T10:08:46.777Z,2.28
2023-08-11T10:11:15.596Z,2.60
2023-08-11T10:13:45.124Z,2.35
2023-08-11T10:16:14.163Z,2.03
2023-08-11T10:18:42.154Z,1.75
2023-08-11T10:21:10.053Z,1.90
2023-08-11T10:23:38.464Z,1.95
2023-08-11T10:26:06.279Z,2.08
2023-08-11T10:28:34.450Z,1.70
2023-08-11T10:31:06.706Z,2.28
2023-08-11T10:33:36.454Z,2.28
2023-08-11T10:36:04.696Z,2.40
2023-08-11T10:38:33.653Z,2.30
2023-08-11T10:41:02.195Z,2.05
2023-08-11T10:43:33.424Z,2.10
2023-08-11T10:46:24.660Z,2.13
2023-08-11T10:48:53.206Z,1.95
2023-08-11T10:51:28.883Z,1.98
2023-08-11T10:53:58.021Z,2.10
2023-08-11T10:56:30.044Z,2.65
2023-08-11T10:59:14.229Z,2.03
2023-08-11T11:01:44.410Z,2.20
2023-08-11T11:04:13.288Z,2.00
2023-08-11T11:06:41.710Z,2.08
2023-08-11T11:09:09.597Z,2.13
2023-08-11T11:11:38.638Z,2.15
2023-08-11T11:14:06.567Z,2.08
2023-08-11T11:16:34.677Z,2.05
2023-08-11T11:19:04.689Z,2.03
2023-08-11T11:21:32.956Z,1.90
2023-08-11T11:24:00.847Z,2.10
2023-08-11T11:26:29.898Z,2.00
2023-08-11T11:28:59.533Z,2.20
2023-08-11T11:31:28.862Z,2.10
2023-08-11T11:33:57.030Z,2.58
2023-08-11T11:36:26.482Z,2.03
2023-08-11T11:38:54.204Z,2.15
2023-08-11T11:41:22.559Z,1.75
2023-08-11T11:43:51.363Z,1.83
2023-08-11T11:46:21.281Z,2.03
2023-08-11T11:48:49.969Z,1.90
2023-08-11T11:51:19.746Z,1.92
2023-08-11T11:53:51.725Z,2.60
2023-08-11T11:56:19.966Z,2.00
2023-08-11T11:58:48.701Z,1.90
2023-08-11T12:01:19.368Z,2.13
2023-08-11T12:03:48.233Z,1.98
2023-08-11T12:06:19.210Z,2.47
2023-08-11T12:08:50.121Z,2.08
2023-08-11T12:11:26.394Z,2.25
2023-08-11T12:13:54.212Z,1.98
2023-08-11T12:16:23.575Z,1.98
2023-08-11T12:18:51.436Z,2.20
2023-08-11T12:21:19.216Z,1.83
2023-08-11T12:23:48.212Z,2.00
2023-08-11T12:26:15.823Z,1.77
2023-08-11T12:28:43.462Z,2.15
2023-08-11T12:31:13.050Z,2.20
2023-08-11T12:33:42.215Z,2.20
2023-08-11T12:36:10.063Z,2.00
2023-08-11T12:38:37.989Z,2.20
2023-08-11T12:41:07.036Z,2.30
2023-08-11T12:43:34.706Z,2.05
2023-08-11T12:46:02.456Z,2.00
2023-08-11T12:48:30.192Z,1.92
2023-08-11T12:50:57.856Z,2.00
2023-08-11T12:53:25.726Z,2.00
2023-08-11T12:55:53.378Z,2.20
2023-08-11T12:58:22.421Z,2.05
2023-08-11T13:00:50.123Z,2.10
2023-08-11T13:03:17.853Z,2.17
2023-08-11T13:05:46.071Z,2.17
2023-08-11T13:08:13.755Z,2.38
2023-08-11T13:10:41.483Z,2.30
2023-08-11T13:13:10.786Z,2.38
2023-08-11T13:15:41.324Z,2.30
2023-08-11T13:18:09.088Z,2.30
2023-08-11T13:20:36.796Z,2.33
2023-08-11T13:23:04.822Z,2.30
2023-08-11T13:25:33.077Z,2.15
2023-08-11T13:28:00.702Z,2.03
2023-08-11T13:30:31.945Z,2.40
2023-08-11T13:33:01.466Z,2.40
2023-08-11T13:35:29.105Z,2.70
2023-08-11T13:37:56.770Z,2.63
2023-08-11T13:40:24.908Z,2.70
2023-08-11T13:42:52.607Z,2.47
2023-08-11T13:45:20.286Z,2.40
2023-08-11T13:47:48.166Z,2.20
2023-08-11T13:50:17.304Z,2.47
2023-08-11T13:52:45.666Z,2.58
2023-08-11T13:55:13.365Z,3.00
2023-08-11T13:57:41.170Z,2.80
2023-08-11T14:00:13.399Z,2.50
2023-08-11T14:02:41.156Z,2.53
2023-08-11T14:05:09.724Z,2.65
2023-08-11T14:07:38.805Z,2.65
2023-08-11T14:10:07.372Z,2.30
2023-08-11T14:12:35.433Z,2.28
2023-08-11T14:15:03.111Z,2.22
2023-08-11T14:17:30.777Z,2.25
2023-08-11T14:19:58.458Z,2.67
2023-08-11T14:22:26.255Z,2.42
2023-08-11T14:24:55.996Z,2.38
2023-08-11T14:27:23.770Z,2.65
2023-08-11T14:29:51.975Z,2.30
2023-08-11T14:32:26.098Z,2.53
2023-08-11T14:34:54.467Z,2.45
2023-08-11T14:37:22.658Z,2.55
2023-08-11T14:39:50.348Z,2.30
2023-08-11T14:42:19.589Z,2.30
2023-08-11T14:44:47.381Z,2.30
2023-08-11T14:47:15.811Z,2.40
2023-08-11T14:49:43.849Z,2.10
2023-08-11T14:52:12.379Z,2.40
2023-08-11T14:54:40.434Z,2.38
2023-08-11T14:57:10.450Z,2.40
2023-08-11T14:59:40.129Z,2.47
2023-08-11T15:02:09.218Z,2.58
2023-08-11T15:04:37.234Z,2.42
2023-08-11T15:07:04.993Z,2.42
2023-08-11T15:09:32.730Z,2.28
2023-08-11T15:12:00.497Z,2.60
2023-08-11T15:14:28.285Z,2.40
2023-08-11T15:16:58.414Z,2.80
2023-08-11T15:19:26.098Z,2.22
2023-08-11T15:21:53.750Z,2.63
2023-08-11T15:24:21.384Z,2.70
2023-08-11T15:26:49.074Z,2.50
2023-08-11T15:29:16.845Z,2.80
2023-08-11T15:31:44.593Z,2.58
2023-08-11T15:34:13.583Z,2.25
2023-08-11T15:36:41.621Z,2.42
2023-08-11T15:39:09.605Z,2.53
2023-08-11T15:41:37.433Z,2.42
2023-08-11T15:44:05.676Z,2.58
2023-08-11T15:46:33.495Z,2.65
2023-08-11T15:49:01.407Z,2.80
2023-08-11T15:51:30.478Z,2.70
2023-08-11T15:53:58.114Z,2.50
2023-08-11T15:56:25.775Z,2.60
2023-08-11T15:58:56.647Z,2.40
2023-08-11T16:01:25.251Z,2.47
2023-08-11T16:03:53.550Z,2.40
2023-08-11T16:06:21.251Z,2.55
2023-08-11T16:08:50.265Z,2.60
2023-08-11T16:11:17.896Z,2.97
2023-08-11T16:13:45.676Z,2.50
2023-08-11T16:16:13.395Z,2.92
2023-08-11T16:18:41.132Z,2.65
2023-08-11T16:21:08.833Z,2.35
2023-08-11T16:23:36.742Z,2.70
2023-08-11T16:26:05.765Z,2.22
2023-08-11T16:28:33.924Z,2.38
2023-08-11T16:31:01.657Z,2.50
2023-08-11T16:33:29.460Z,2.53
2023-08-11T16:35:57.092Z,2.22
2023-08-11T16:38:24.751Z,2.05
2023-08-11T16:40:52.414Z,2.20
2023-08-11T16:43:21.500Z,1.90
2023-08-11T16:45:49.513Z,2.20
2023-08-11T16:48:19.861Z,1.90
2023-08-11T16:50:47.776Z,2.00
2023-08-11T16:53:15.426Z,1.77
2023-08-11T16:55:43.104Z,1.77
2023-08-11T16:58:10.747Z,1.80
2023-08-11T17:00:39.787Z,1.70
2023-08-11T17:03:07.522Z,1.90
2023-08-11T17:05:35.529Z,1.73
2023-08-11T17:08:03.202Z,2.00
2023-08-11T17:10:30.836Z,1.85
2023-08-11T17:12:58.501Z,1.80
2023-08-11T17:15:26.226Z,2.20
2023-08-11T17:17:55.245Z,2.00
2023-08-11T17:20:22.977Z,1.90
2023-08-11T17:22:50.633Z,2.00
2023-08-11T17:25:18.593Z,2.08
2023-08-11T17:27:46.434Z,2.15
2023-08-11T17:30:15.236Z,2.15
2023-08-11T17:32:43.761Z,2.10
2023-08-11T17:35:12.804Z,2.28
2023-08-11T17:37:40.472Z,2.22
2023-08-11T17:40:09.897Z,1.92
2023-08-11T17:42:37.569Z,1.80
2023-08-11T17:45:06.078Z,2.38
2023-08-11T17:47:33.831Z,2.22
2023-08-11T17:50:01.599Z,2.22
2023-08-11T17:52:30.598Z,2.20
2023-08-11T17:54:58.264Z,2.40
2023-08-11T17:57:25.932Z,1.92
2023-08-11T17:59:53.699Z,2.20
2023-08-11T18:02:21.368Z,2.30
2023-08-11T18:04:49.158Z,2.10
2023-08-11T18:07:16.940Z,2.25
2023-08-11T18:09:46.005Z,2.10
2023-08-11T18:12:13.875Z,2.30
2023-08-11T18:14:53.833Z,2.20
2023-08-11T18:17:21.570Z,2.25
2023-08-11T18:19:49.322Z,2.30
2023-08-11T18:22:16.939Z,2.00
2023-08-11T18:24:46.323Z,2.15
2023-08-11T18:27:14.206Z,2.08
2023-08-11T18:29:41.994Z,2.55
2023-08-11T18:32:10.386Z,2.10
2023-08-11T18:34:38.569Z,2.05
2023-08-11T18:37:06.359Z,2.30
2023-08-11T18:39:34.002Z,2.60
2023-08-11T18:42:03.116Z,2.30
2023-08-11T18:44:31.014Z,2.25
2023-08-11T18:46:58.673Z,2.45
2023-08-11T18:49:28.131Z,2.30
2023-08-11T18:51:55.778Z,2.70
2023-08-11T18:54:23.618Z,2.20
2023-08-11T18:56:51.469Z,2.40
2023-08-11T18:59:20.497Z,2.40
2023-08-11T19:01:48.394Z,2.33
2023-08-11T19:04:16.239Z,2.20
2023-08-11T19:06:44.386Z,2.80
2023-08-11T19:09:12.071Z,2.17
2023-08-11T19:11:39.910Z,2.88
2023-08-11T19:14:08.520Z,2.60
2023-08-11T19:16:38.030Z,2.47
2023-08-11T19:19:06.130Z,2.70
2023-08-11T19:21:33.757Z,2.80
2023-08-11T19:24:01.371Z,2.53
2023-08-11T19:26:29.158Z,2.78
2023-08-11T19:28:57.419Z,2.60
2023-08-11T19:31:25.090Z,2.72
2023-08-11T19:33:54.174Z,2.60
2023-08-11T19:36:21.833Z,3.00
2023-08-11T19:38:49.464Z,2.78
2023-08-11T19:41:17.107Z,2.92
2023-08-11T19:43:44.763Z,3.17
2023-08-11T19:46:12.548Z,2.90
2023-08-11T19:48:40.879Z,3.22
2023-08-11T19:51:09.865Z,2.92
2023-08-11T19:53:37.508Z,3.13
2023-08-11T19:56:05.847Z,3.67
2023-08-11T19:58:33.462Z,3.40
2023-08-11T20:01:01.140Z,3.35
2023-08-11T20:03:28.844Z,3.53
2023-08-11T20:05:56.509Z,3.58
2023-08-11T20:08:25.612Z,6.30
2023-08-11T20:10:53.268Z,10.57
2023-08-11T20:13:20.951Z,10.30
2023-08-11T20:15:48.793Z,7.10
2023-08-11T20:18:16.606Z,4.32
2023-08-11T20:20:45.349Z,3.90
2023-08-11T20:23:13.162Z,3.60
2023-08-11T20:25:42.081Z,3.10
2023-08-11T20:28:09.858Z,3.03
2023-08-11T20:30:37.856Z,2.93
2023-08-11T20:33:06.052Z,2.70
2023-08-11T20:35:33.716Z,2.67
2023-08-11T20:38:01.412Z,2.37
2023-08-11T20:40:29.106Z,2.67
2023-08-11T20:42:58.137Z,2.57
2023-08-11T20:45:30.675Z,2.90
2023-08-11T20:48:01.033Z,2.53
2023-08-11T20:50:28.946Z,2.43
2023-08-11T20:52:56.743Z,2.90
2023-08-11T20:55:24.407Z,2.70
2023-08-11T20:57:52.057Z,2.60
2023-08-11T21:00:21.285Z,2.73
2023-08-11T21:02:49.024Z,2.50
2023-08-11T21:05:17.078Z,2.80
2023-08-11T21:07:44.822Z,2.33
2023-08-11T21:10:15.875Z,2.57
2023-08-11T21:12:44.060Z,2.70
2023-08-11T21:15:12.004Z,2.53
2023-08-11T21:17:41.069Z,2.50
2023-08-11T21:20:10.026Z,3.00
2023-08-11T21:22:37.834Z,2.77
2023-08-11T21:25:05.990Z,2.60
2023-08-11T21:27:33.770Z,2.60
2023-08-11T21:30:01.578Z,2.67
2023-08-11T21:32:29.293Z,2.67
2023-08-11T21:34:58.376Z,2.60
2023-08-11T21:37:26.186Z,2.63
2023-08-11T21:39:53.950Z,2.43
2023-08-11T21:42:21.747Z,3.10
2023-08-11T21:44:49.436Z,3.23
2023-08-11T21:47:17.150Z,2.87
2023-08-11T21:49:44.904Z,2.30
2023-08-11T21:52:14.067Z,2.63
2023-08-11T21:54:41.741Z,2.90
2023-08-11T21:57:11.342Z,2.50
2023-08-11T21:59:41.880Z,2.50
2023-08-11T22:02:09.887Z,2.63
2023-08-11T22:04:38.338Z,3.00
2023-08-11T22:07:06.217Z,2.73
2023-08-11T22:09:35.286Z,3.10
2023-08-11T22:12:03.031Z,2.90
2023-08-11T22:14:30.706Z,2.93
2023-08-11T22:16:59.608Z,2.90
2023-08-11T22:19:27.531Z,2.90
2023-08-11T22:21:55.209Z,2.80
2023-08-11T22:24:34.656Z,2.93
2023-08-11T22:27:08.805Z,2.47
2023-08-11T22:29:36.981Z,3.10
2023-08-11T22:32:05.242Z,3.10
2023-08-11T22:34:32.998Z,2.90
2023-08-11T22:37:00.808Z,2.93
2023-08-11T22:39:28.577Z,2.93
2023-08-11T22:41:56.261Z,3.17
2023-08-11T22:44:25.308Z,2.80
2023-08-11T22:46:53.337Z,3.30
2023-08-11T22:49:21.051Z,3.07
2023-08-11T22:51:48.741Z,3.10
2023-08-11T22:54:16.514Z,2.97
2023-08-11T22:56:44.245Z,3.37
2023-08-11T22:59:11.927Z,2.90
2023-08-11T23:01:40.931Z,3.00
2023-08-11T23:04:08.798Z,3.43
2023-08-11T23:06:36.663Z,3.17
2023-08-11T23:09:04.640Z,3.00
2023-08-11T23:11:32.419Z,2.97
2023-08-11T23:14:00.112Z,3.23
2023-08-11T23:16:28.098Z,3.00
2023-08-11T23:18:57.178Z,3.27
2023-08-11T23:21:24.932Z,3.43
2023-08-11T23:23:52.599Z,3.40
2023-08-11T23:26:20.312Z,3.10
2023-08-11T23:28:48.265Z,3.30
2023-08-11T23:31:17.513Z,2.77
2023-08-11T23:33:45.421Z,3.17
2023-08-11T23:36:14.486Z,3.40
2023-08-11T23:38:42.196Z,3.60
2023-08-11T23:41:09.850Z,3.03
2023-08-11T23:43:37.787Z,3.30
2023-08-11T23:46:08.092Z,3.47
2023-08-11T23:48:35.957Z,3.63
2023-08-11T23:51:03.720Z,3.30
2023-08-11T23:53:32.757Z,3.20
2023-08-11T23:56:00.630Z,3.20
2023-08-11T23:58:28.508Z,3.17
